sensor_id;sensor_type;location;lat;lon;timestamp;pressure;altitude;pressure_sealevel;temperature;humidity
4705;BME280;2366;51.332;6.610;2023-02-20T00:01:17;102504.69;;;8.12;71.73
4705;BME280;2366;51.332;6.610;2023-02-20T00:03:44;102505.53;;;8.12;71.66
4705;BME280;2366;51.332;6.610;2023-02-20T00:06:10;102500.34;;;8.09;72.11
4705;BME280;2366;51.332;6.610;2023-02-20T00:08:35;102494.97;;;8.12;72.09
4705;BME280;2366;51.332;6.610;2023-02-20T00:11:01;102489.59;;;8.15;72.28
4705;BME280;2366;51.332;6.610;2023-02-20T00:13:26;102501.91;;;8.18;72.30
4705;BME280;2366;51.332;6.610;2023-02-20T00:15:51;102514.16;;;8.22;72.26
4705;BME280;2366;51.332;6.610;2023-02-20T00:18:17;102497.41;;;8.21;72.26
4705;BME280;2366;51.332;6.610;2023-02-20T00:20:43;102498.28;;;8.22;72.03
4705;BME280;2366;51.332;6.610;2023-02-20T00:23:08;102489.34;;;8.26;72.58
4705;BME280;2366;51.332;6.610;2023-02-20T00:25:34;102494.63;;;8.28;72.44
4705;BME280;2366;51.332;6.610;2023-02-20T00:27:59;102500.69;;;8.33;72.27
4705;BME280;2366;51.332;6.610;2023-02-20T00:30:25;102484.88;;;8.30;72.26
4705;BME280;2366;51.332;6.610;2023-02-20T00:32:52;102482.13;;;8.34;72.58
4705;BME280;2366;51.332;6.610;2023-02-20T00:35:18;102482.88;;;8.41;72.56
4705;BME280;2366;51.332;6.610;2023-02-20T00:37:46;102482.72;;;8.47;72.25
4705;BME280;2366;51.332;6.610;2023-02-20T00:40:12;102492.31;;;8.51;72.30
4705;BME280;2366;51.332;6.610;2023-02-20T00:42:37;102488.66;;;8.57;72.83
4705;BME280;2366;51.332;6.610;2023-02-20T00:45:03;102491.19;;;8.61;72.68
4705;BME280;2366;51.332;6.610;2023-02-20T00:47:29;102473.50;;;8.63;72.67
4705;BME280;2366;51.332;6.610;2023-02-20T00:49:54;102463.81;;;8.64;72.47
4705;BME280;2366;51.332;6.610;2023-02-20T00:52:20;102462.84;;;8.67;72.58
4705;BME280;2366;51.332;6.610;2023-02-20T00:54:45;102457.50;;;8.70;72.85
4705;BME280;2366;51.332;6.610;2023-02-20T00:57:10;102455.59;;;8.75;72.62
4705;BME280;2366;51.332;6.610;2023-02-20T00:59:36;102442.22;;;8.81;72.63
4705;BME280;2366;51.332;6.610;2023-02-20T01:02:02;102443.81;;;8.87;72.33
4705;BME280;2366;51.332;6.610;2023-02-20T01:04:27;102438.56;;;8.85;72.67
4705;BME280;2366;51.332;6.610;2023-02-20T01:06:53;102436.75;;;8.87;72.79
4705;BME280;2366;51.332;6.610;2023-02-20T01:09:18;102431.47;;;8.87;72.63
4705;BME280;2366;51.332;6.610;2023-02-20T01:11:44;102432.34;;;8.86;72.39
4705;BME280;2366;51.332;6.610;2023-02-20T01:14:10;102432.47;;;8.83;72.53
4705;BME280;2366;51.332;6.610;2023-02-20T01:16:36;102419.34;;;8.78;72.33
4705;BME280;2366;51.332;6.610;2023-02-20T01:19:02;102416.75;;;8.77;72.97
4705;BME280;2366;51.332;6.610;2023-02-20T01:21:27;102408.88;;;8.74;72.90
4705;BME280;2366;51.332;6.610;2023-02-20T01:23:53;102408.84;;;8.75;72.85
4705;BME280;2366;51.332;6.610;2023-02-20T01:26:18;102399.06;;;8.79;72.99
4705;BME280;2366;51.332;6.610;2023-02-20T01:28:44;102390.19;;;8.80;72.84
4705;BME280;2366;51.332;6.610;2023-02-20T01:31:11;102388.47;;;8.79;72.85
4705;BME280;2366;51.332;6.610;2023-02-20T01:33:42;102386.66;;;8.81;73.12
4705;BME280;2366;51.332;6.610;2023-02-20T01:36:08;102393.59;;;8.85;73.12
4705;BME280;2366;51.332;6.610;2023-02-20T01:38:34;102405.84;;;8.89;72.72
4705;BME280;2366;51.332;6.610;2023-02-20T01:40:59;102417.16;;;8.94;72.81
4705;BME280;2366;51.332;6.610;2023-02-20T01:43:25;102407.22;;;9.02;72.80
4705;BME280;2366;51.332;6.610;2023-02-20T01:45:50;102395.53;;;9.11;72.76
4705;BME280;2366;51.332;6.610;2023-02-20T01:48:24;102416.41;;;9.20;72.86
4705;BME280;2366;51.332;6.610;2023-02-20T01:50:53;102415.31;;;9.28;72.76
4705;BME280;2366;51.332;6.610;2023-02-20T01:53:22;102410.78;;;9.33;72.71
4705;BME280;2366;51.332;6.610;2023-02-20T01:58:21;102396.91;;;9.24;72.18
4705;BME280;2366;51.332;6.610;2023-02-20T02:00:48;102396.06;;;9.22;72.32
4705;BME280;2366;51.332;6.610;2023-02-20T02:03:22;102393.38;;;9.24;72.37
4705;BME280;2366;51.332;6.610;2023-02-20T02:05:52;102383.81;;;9.20;72.36
4705;BME280;2366;51.332;6.610;2023-02-20T02:08:20;102376.06;;;9.12;72.14
4705;BME280;2366;51.332;6.610;2023-02-20T02:11:01;102384.25;;;9.04;72.04
4705;BME280;2366;51.332;6.610;2023-02-20T02:13:28;102366.84;;;8.96;72.14
4705;BME280;2366;51.332;6.610;2023-02-20T02:16:06;102367.84;;;8.92;72.41
4705;BME280;2366;51.332;6.610;2023-02-20T02:24:33;102337.06;;;8.89;72.41
4705;BME280;2366;51.332;6.610;2023-02-20T02:27:33;102341.41;;;8.92;72.82
4705;BME280;2366;51.332;6.610;2023-02-20T02:30:54;102336.09;;;8.92;72.81
4705;BME280;2366;51.332;6.610;2023-02-20T02:38:57;102315.97;;;8.86;72.75
4705;BME280;2366;51.332;6.610;2023-02-20T02:41:39;102319.44;;;8.88;73.36
4705;BME280;2366;51.332;6.610;2023-02-20T02:44:26;102322.88;;;8.92;73.11
4705;BME280;2366;51.332;6.610;2023-02-20T02:49:50;102312.44;;;8.87;73.00
4705;BME280;2366;51.332;6.610;2023-02-20T02:52:20;102321.25;;;8.86;72.55
4705;BME280;2366;51.332;6.610;2023-02-20T02:55:04;102321.38;;;8.83;73.44
4705;BME280;2366;51.332;6.610;2023-02-20T02:57:29;102325.69;;;8.86;73.09
4705;BME280;2366;51.332;6.610;2023-02-20T03:00:02;102317.72;;;8.87;73.42
4705;BME280;2366;51.332;6.610;2023-02-20T03:02:31;102313.28;;;8.88;73.45
4705;BME280;2366;51.332;6.610;2023-02-20T03:04:58;102305.31;;;8.89;73.21
4705;BME280;2366;51.332;6.610;2023-02-20T03:07:26;102308.75;;;8.91;73.39
4705;BME280;2366;51.332;6.610;2023-02-20T03:09:58;102316.63;;;8.94;73.41
4705;BME280;2366;51.332;6.610;2023-02-20T03:12:25;102310.34;;;8.98;73.00
4705;BME280;2366;51.332;6.610;2023-02-20T03:14:58;102300.72;;;8.96;73.28
4705;BME280;2366;51.332;6.610;2023-02-20T03:17:48;102304.94;;;9.01;73.21
4705;BME280;2366;51.332;6.610;2023-02-20T03:20:18;102295.22;;;9.02;73.36
4705;BME280;2366;51.332;6.610;2023-02-20T03:22:49;102303.94;;;9.05;73.17
4705;BME280;2366;51.332;6.610;2023-02-20T03:25:25;102284.63;;;9.02;73.14
4705;BME280;2366;51.332;6.610;2023-02-20T03:28:14;102268.91;;;8.97;72.84
4705;BME280;2366;51.332;6.610;2023-02-20T03:33:33;102289.31;;;8.94;72.60
4705;BME280;2366;51.332;6.610;2023-02-20T03:36:25;102289.44;;;8.89;72.69
4705;BME280;2366;51.332;6.610;2023-02-20T03:39:17;102282.41;;;8.88;72.64
4705;BME280;2366;51.332;6.610;2023-02-20T03:42:05;102279.03;;;8.83;72.93
4705;BME280;2366;51.332;6.610;2023-02-20T03:44:51;102270.47;;;8.75;72.27
4705;BME280;2366;51.332;6.610;2023-02-20T03:47:18;102268.91;;;8.68;72.54
4705;BME280;2366;51.332;6.610;2023-02-20T03:49:46;102273.31;;;8.67;72.69
4705;BME280;2366;51.332;6.610;2023-02-20T03:52:14;102272.56;;;8.63;72.77
4705;BME280;2366;51.332;6.610;2023-02-20T03:54:41;102269.09;;;8.61;72.81
4705;BME280;2366;51.332;6.610;2023-02-20T03:57:12;102267.41;;;8.59;72.80
4705;BME280;2366;51.332;6.610;2023-02-20T03:59:43;102274.41;;;8.60;72.69
4705;BME280;2366;51.332;6.610;2023-02-20T04:02:21;102276.25;;;8.56;72.83
4705;BME280;2366;51.332;6.610;2023-02-20T04:04:52;102275.38;;;8.57;72.71
4705;BME280;2366;51.332;6.610;2023-02-20T04:07:29;102271.91;;;8.55;73.11
4705;BME280;2366;51.332;6.610;2023-02-20T04:09:58;102280.81;;;8.51;72.59
4705;BME280;2366;51.332;6.610;2023-02-20T04:12:31;102279.94;;;8.52;73.23
4705;BME280;2366;51.332;6.610;2023-02-20T04:14:59;102277.28;;;8.52;73.01
4705;BME280;2366;51.332;6.610;2023-02-20T04:17:45;102272.00;;;8.52;72.96
4705;BME280;2366;51.332;6.610;2023-02-20T04:20:11;102278.19;;;8.51;72.60
4705;BME280;2366;51.332;6.610;2023-02-20T04:22:39;102271.34;;;8.44;72.78
4705;BME280;2366;51.332;6.610;2023-02-20T04:27:58;102272.22;;;8.43;73.12
4705;BME280;2366;51.332;6.610;2023-02-20T04:30:24;102276.69;;;8.41;73.17
4705;BME280;2366;51.332;6.610;2023-02-20T04:32:49;102266.13;;;8.41;73.08
4705;BME280;2366;51.332;6.610;2023-02-20T04:35:19;102273.28;;;8.36;72.84
4705;BME280;2366;51.332;6.610;2023-02-20T04:37:45;102271.47;;;8.38;73.76
4705;BME280;2366;51.332;6.610;2023-02-20T04:40:12;102272.28;;;8.40;73.59
4705;BME280;2366;51.332;6.610;2023-02-20T04:42:38;102267.91;;;8.40;73.56
4705;BME280;2366;51.332;6.610;2023-02-20T04:45:03;102267.91;;;8.40;73.46
4705;BME280;2366;51.332;6.610;2023-02-20T04:47:29;102271.41;;;8.41;72.83
4705;BME280;2366;51.332;6.610;2023-02-20T04:49:54;102273.25;;;8.37;73.35
4705;BME280;2366;51.332;6.610;2023-02-20T04:52:20;102266.22;;;8.36;73.13
4705;BME280;2366;51.332;6.610;2023-02-20T04:54:45;102268.84;;;8.36;73.54
4705;BME280;2366;51.332;6.610;2023-02-20T04:57:11;102271.47;;;8.38;74.02
4705;BME280;2366;51.332;6.610;2023-02-20T04:59:36;102266.13;;;8.41;73.70
4705;BME280;2366;51.332;6.610;2023-02-20T05:02:02;102263.50;;;8.39;74.17
4705;BME280;2366;51.332;6.610;2023-02-20T05:04:27;102258.13;;;8.44;73.85
4705;BME280;2366;51.332;6.610;2023-02-20T05:06:54;102256.06;;;8.54;74.50
4705;BME280;2366;51.332;6.610;2023-02-20T05:09:20;102263.53;;;8.71;74.46
4705;BME280;2366;51.332;6.610;2023-02-20T05:11:46;102264.88;;;8.84;73.94
4705;BME280;2366;51.332;6.610;2023-02-20T05:14:11;102267.91;;;9.01;74.26
4705;BME280;2366;51.332;6.610;2023-02-20T05:16:38;102260.59;;;9.10;74.18
4705;BME280;2366;51.332;6.610;2023-02-20T05:19:04;102255.97;;;9.16;73.95
4705;BME280;2366;51.332;6.610;2023-02-20T05:21:29;102261.16;;;9.19;73.67
4705;BME280;2366;51.332;6.610;2023-02-20T05:24:13;102266.22;;;9.27;73.62
4705;BME280;2366;51.332;6.610;2023-02-20T05:26:38;102263.47;;;9.30;73.52
4705;BME280;2366;51.332;6.610;2023-02-20T05:29:05;102265.84;;;9.39;73.50
4705;BME280;2366;51.332;6.610;2023-02-20T05:31:30;102268.31;;;9.45;73.23
4705;BME280;2366;51.332;6.610;2023-02-20T05:33:56;102262.03;;;9.48;72.89
4705;BME280;2366;51.332;6.610;2023-02-20T05:36:21;102272.34;;;9.57;73.11
4705;BME280;2366;51.332;6.610;2023-02-20T05:38:47;102259.06;;;9.59;72.80
4705;BME280;2366;51.332;6.610;2023-02-20T05:41:17;102267.16;;;9.54;72.37
4705;BME280;2366;51.332;6.610;2023-02-20T05:43:43;102267.28;;;9.50;72.44
4705;BME280;2366;51.332;6.610;2023-02-20T05:46:09;102263.47;;;9.58;72.21
4705;BME280;2366;51.332;6.610;2023-02-20T05:48:34;102256.78;;;9.73;71.81
4705;BME280;2366;51.332;6.610;2023-02-20T05:50:59;102249.50;;;9.80;71.87
4705;BME280;2366;51.332;6.610;2023-02-20T05:53:29;102257.44;;;9.80;71.32
4705;BME280;2366;51.332;6.610;2023-02-20T05:55:54;102252.81;;;9.86;71.37
4705;BME280;2366;51.332;6.610;2023-02-20T05:58:20;102247.63;;;9.83;71.22
4705;BME280;2366;51.332;6.610;2023-02-20T06:00:45;102248.47;;;9.84;70.92
4705;BME280;2366;51.332;6.610;2023-02-20T06:03:12;102245.09;;;9.80;70.88
4705;BME280;2366;51.332;6.610;2023-02-20T06:05:38;102247.63;;;9.83;70.47
4705;BME280;2366;51.332;6.610;2023-02-20T06:08:03;102260.19;;;9.78;70.39
4705;BME280;2366;51.332;6.610;2023-02-20T06:10:29;102251.25;;;9.81;70.15
4705;BME280;2366;51.332;6.610;2023-02-20T06:13:03;102251.13;;;9.84;69.86
4705;BME280;2366;51.332;6.610;2023-02-20T06:15:28;102248.03;;;9.71;70.14
4705;BME280;2366;51.332;6.610;2023-02-20T06:17:54;102247.78;;;9.79;69.82
4705;BME280;2366;51.332;6.610;2023-02-20T06:20:19;102249.34;;;9.84;69.48
4705;BME280;2366;51.332;6.610;2023-02-20T06:22:48;102256.38;;;9.85;69.31
4705;BME280;2366;51.332;6.610;2023-02-20T06:25:13;102255.69;;;9.80;69.56
4705;BME280;2366;51.332;6.610;2023-02-20T06:27:39;102271.34;;;9.86;69.61
4705;BME280;2366;51.332;6.610;2023-02-20T06:30:04;102284.59;;;9.86;69.01
4705;BME280;2366;51.332;6.610;2023-02-20T06:32:30;102275.84;;;9.84;68.95
4705;BME280;2366;51.332;6.610;2023-02-20T06:34:55;102274.94;;;9.85;68.97
4705;BME280;2366;51.332;6.610;2023-02-20T06:37:21;102286.44;;;9.84;68.42
4705;BME280;2366;51.332;6.610;2023-02-20T06:39:46;102272.41;;;9.82;68.72
4705;BME280;2366;51.332;6.610;2023-02-20T06:42:13;102273.19;;;9.84;68.89
4705;BME280;2366;51.332;6.610;2023-02-20T06:44:39;102281.00;;;9.89;68.62
4705;BME280;2366;51.332;6.610;2023-02-20T06:47:04;102284.59;;;9.86;68.52
4705;BME280;2366;51.332;6.610;2023-02-20T06:49:34;102298.78;;;9.85;68.15
4705;BME280;2366;51.332;6.610;2023-02-20T06:51:59;102289.69;;;9.93;68.64
4705;BME280;2366;51.332;6.610;2023-02-20T06:54:25;102274.81;;;9.88;68.61
4705;BME280;2366;51.332;6.610;2023-02-20T06:56:50;102275.53;;;9.94;68.53
4705;BME280;2366;51.332;6.610;2023-02-20T06:59:16;102283.34;;;9.98;68.57
4705;BME280;2366;51.332;6.610;2023-02-20T07:01:42;102287.66;;;10.01;68.45
4705;BME280;2366;51.332;6.610;2023-02-20T07:04:22;102285.00;;;10.01;68.24
4705;BME280;2366;51.332;6.610;2023-02-20T07:06:48;102286.63;;;10.05;68.38
4705;BME280;2366;51.332;6.610;2023-02-20T07:09:14;102286.69;;;10.03;68.14
4705;BME280;2366;51.332;6.610;2023-02-20T07:11:40;102284.09;;;10.02;68.50
4705;BME280;2366;51.332;6.610;2023-02-20T07:14:06;102286.47;;;10.10;68.29
4705;BME280;2366;51.332;6.610;2023-02-20T07:16:31;102288.88;;;10.17;68.14
4705;BME280;2366;51.332;6.610;2023-02-20T07:18:57;102288.81;;;10.19;68.15
4705;BME280;2366;51.332;6.610;2023-02-20T07:21:22;102286.09;;;10.20;67.85
4705;BME280;2366;51.332;6.610;2023-02-20T07:23:48;102296.72;;;10.20;67.88
4705;BME280;2366;51.332;6.610;2023-02-20T07:26:22;102280.69;;;10.23;67.74
4705;BME280;2366;51.332;6.610;2023-02-20T07:28:48;102284.53;;;10.15;67.82
4705;BME280;2366;51.332;6.610;2023-02-20T07:31:14;102285.22;;;10.21;67.57
4705;BME280;2366;51.332;6.610;2023-02-20T07:33:39;102293.16;;;10.21;67.33
4705;BME280;2366;51.332;6.610;2023-02-20T07:36:11;102280.47;;;10.31;67.65
4705;BME280;2366;51.332;6.610;2023-02-20T07:38:36;102280.34;;;10.34;66.99
4705;BME280;2366;51.332;6.610;2023-02-20T07:41:02;102296.03;;;10.40;67.19
4705;BME280;2366;51.332;6.610;2023-02-20T07:43:28;102298.63;;;10.42;67.14
4705;BME280;2366;51.332;6.610;2023-02-20T07:45:53;102296.38;;;10.56;66.90
4705;BME280;2366;51.332;6.610;2023-02-20T07:48:18;102289.16;;;10.60;66.70
4705;BME280;2366;51.332;6.610;2023-02-20T07:50:44;102288.75;;;10.71;66.68
4705;BME280;2366;51.332;6.610;2023-02-20T07:53:14;102290.84;;;10.86;66.39
4705;BME280;2366;51.332;6.610;2023-02-20T07:55:40;102284.25;;;10.96;66.13
4705;BME280;2366;51.332;6.610;2023-02-20T07:58:05;102280.56;;;11.00;65.55
4705;BME280;2366;51.332;6.610;2023-02-20T08:00:30;102286.72;;;11.01;65.92
4705;BME280;2366;51.332;6.610;2023-02-20T08:02:56;102289.84;;;11.12;65.15
4705;BME280;2366;51.332;6.610;2023-02-20T08:05:23;102281.06;;;11.10;65.16
4705;BME280;2366;51.332;6.610;2023-02-20T08:07:50;102288.13;;;11.11;65.07
4705;BME280;2366;51.332;6.610;2023-02-20T08:10:18;102278.34;;;11.12;64.63
4705;BME280;2366;51.332;6.610;2023-02-20T08:12:44;102283.63;;;11.13;64.94
4705;BME280;2366;51.332;6.610;2023-02-20T08:15:10;102274.03;;;11.09;64.75
4705;BME280;2366;51.332;6.610;2023-02-20T08:17:39;102276.28;;;11.20;64.66
4705;BME280;2366;51.332;6.610;2023-02-20T08:20:06;102276.91;;;11.26;64.67
4705;BME280;2366;51.332;6.610;2023-02-20T08:22:33;102278.38;;;11.34;64.33
4705;BME280;2366;51.332;6.610;2023-02-20T08:24:58;102284.53;;;11.34;64.29
4705;BME280;2366;51.332;6.610;2023-02-20T08:27:24;102278.88;;;11.43;63.66
4705;BME280;2366;51.332;6.610;2023-02-20T08:29:50;102284.81;;;11.50;63.36
4705;BME280;2366;51.332;6.610;2023-02-20T08:32:15;102279.13;;;11.59;63.48
4705;BME280;2366;51.332;6.610;2023-02-20T08:34:40;102269.09;;;11.66;63.54
4705;BME280;2366;51.332;6.610;2023-02-20T08:37:06;102264.63;;;11.66;63.02
4705;BME280;2366;51.332;6.610;2023-02-20T08:39:34;102270.19;;;11.82;62.75
4705;BME280;2366;51.332;6.610;2023-02-20T08:41:59;102268.91;;;11.70;62.68
4705;BME280;2366;51.332;6.610;2023-02-20T08:44:25;102271.97;;;11.82;62.51
4705;BME280;2366;51.332;6.610;2023-02-20T08:46:51;102284.41;;;11.81;62.74
4705;BME280;2366;51.332;6.610;2023-02-20T08:49:17;102278.44;;;11.76;62.59
4705;BME280;2366;51.332;6.610;2023-02-20T08:51:47;102275.63;;;11.79;62.22
4705;BME280;2366;51.332;6.610;2023-02-20T08:54:14;102269.91;;;11.90;62.36
4705;BME280;2366;51.332;6.610;2023-02-20T08:56:41;102268.91;;;11.92;62.21
4705;BME280;2366;51.332;6.610;2023-02-20T08:59:07;102268.19;;;11.89;62.09
4705;BME280;2366;51.332;6.610;2023-02-20T09:01:33;102267.47;;;11.84;62.17
4705;BME280;2366;51.332;6.610;2023-02-20T09:03:58;102274.91;;;11.98;62.07
4705;BME280;2366;51.332;6.610;2023-02-20T09:06:23;102280.63;;;11.88;62.00
4705;BME280;2366;51.332;6.610;2023-02-20T09:08:51;102278.38;;;11.78;61.95
4705;BME280;2366;51.332;6.610;2023-02-20T09:11:16;102269.66;;;11.74;62.30
4705;BME280;2366;51.332;6.610;2023-02-20T09:13:45;102272.56;;;11.90;62.13
4705;BME280;2366;51.332;6.610;2023-02-20T09:16:15;102274.91;;;11.98;61.73
4705;BME280;2366;51.332;6.610;2023-02-20T09:18:41;102272.94;;;12.01;62.06
4705;BME280;2366;51.332;6.610;2023-02-20T09:21:08;102278.56;;;12.16;61.78
4705;BME280;2366;51.332;6.610;2023-02-20T09:23:35;102278.22;;;12.03;61.60
4705;BME280;2366;51.332;6.610;2023-02-20T09:26:00;102274.50;;;12.07;62.17
4705;BME280;2366;51.332;6.610;2023-02-20T09:28:25;102285.94;;;12.09;61.70
4705;BME280;2366;51.332;6.610;2023-02-20T09:30:51;102282.00;;;12.18;61.60
4705;BME280;2366;51.332;6.610;2023-02-20T09:33:19;102273.97;;;12.19;61.70
4705;BME280;2366;51.332;6.610;2023-02-20T09:35:44;102279.94;;;12.24;61.18
4705;BME280;2366;51.332;6.610;2023-02-20T09:38:10;102282.13;;;12.35;61.38
4705;BME280;2366;51.332;6.610;2023-02-20T09:40:35;102278.63;;;12.35;61.24
4705;BME280;2366;51.332;6.610;2023-02-20T09:46:05;102278.47;;;12.38;61.07
4705;BME280;2366;51.332;6.610;2023-02-20T09:51:25;102291.25;;;12.29;61.20
4705;BME280;2366;51.332;6.610;2023-02-20T09:54:11;102287.41;;;12.37;60.88
4705;BME280;2366;51.332;6.610;2023-02-20T09:56:41;102288.47;;;12.32;60.86
4705;BME280;2366;51.332;6.610;2023-02-20T09:59:31;102279.28;;;12.19;61.13
4705;BME280;2366;51.332;6.610;2023-02-20T10:02:01;102282.19;;;12.33;61.77
4705;BME280;2366;51.332;6.610;2023-02-20T10:04:38;102285.75;;;12.53;61.26
4705;BME280;2366;51.332;6.610;2023-02-20T10:09:48;102286.28;;;12.61;60.84
4705;BME280;2366;51.332;6.610;2023-02-20T10:12:19;102278.34;;;12.41;60.75
4705;BME280;2366;51.332;6.610;2023-02-20T10:15:02;102287.78;;;12.48;61.34
4705;BME280;2366;51.332;6.610;2023-02-20T10:17:43;102285.06;;;12.49;61.09
4705;BME280;2366;51.332;6.610;2023-02-20T10:25:49;102276.81;;;12.56;60.51
4705;BME280;2366;51.332;6.610;2023-02-20T10:28:17;102282.31;;;12.51;60.85
4705;BME280;2366;51.332;6.610;2023-02-20T10:30:46;102268.78;;;12.37;61.57
4705;BME280;2366;51.332;6.610;2023-02-20T10:33:41;102272.72;;;12.47;61.31
4705;BME280;2366;51.332;6.610;2023-02-20T10:36:14;102265.56;;;12.49;61.03
4705;BME280;2366;51.332;6.610;2023-02-20T10:38:47;102262.50;;;12.58;60.68
4705;BME280;2366;51.332;6.610;2023-02-20T10:43:45;102258.34;;;12.71;60.66
4705;BME280;2366;51.332;6.610;2023-02-20T10:46:17;102258.69;;;12.64;60.63
4705;BME280;2366;51.332;6.610;2023-02-20T10:48:44;102264.31;;;12.77;60.38
4705;BME280;2366;51.332;6.610;2023-02-20T10:51:42;102255.66;;;12.52;60.64
4705;BME280;2366;51.332;6.610;2023-02-20T10:56:57;102247.91;;;12.67;60.71
4705;BME280;2366;51.332;6.610;2023-02-20T10:59:33;102232.81;;;12.67;61.38
4705;BME280;2366;51.332;6.610;2023-02-20T11:02:02;102225.63;;;12.88;60.68
4705;BME280;2366;51.332;6.610;2023-02-20T11:04:39;102224.88;;;13.04;59.83
4705;BME280;2366;51.332;6.610;2023-02-20T11:07:09;102225.41;;;12.93;59.83
4705;BME280;2366;51.332;6.610;2023-02-20T11:09:36;102223.03;;;12.87;60.21
4705;BME280;2366;51.332;6.610;2023-02-20T11:12:02;102230.00;;;12.89;59.98
4705;BME280;2366;51.332;6.610;2023-02-20T11:14:47;102220.28;;;12.88;59.54
4705;BME280;2366;51.332;6.610;2023-02-20T11:17:19;102223.31;;;12.81;59.88
4705;BME280;2366;51.332;6.610;2023-02-20T11:19:56;102232.94;;;13.02;60.42
4705;BME280;2366;51.332;6.610;2023-02-20T11:22:42;102228.47;;;13.22;59.48
4705;BME280;2366;51.332;6.610;2023-02-20T11:25:26;102221.00;;;13.30;59.24
4705;BME280;2366;51.332;6.610;2023-02-20T11:28:17;102216.59;;;13.29;58.94
4705;BME280;2366;51.332;6.610;2023-02-20T11:30:47;102206.19;;;13.23;59.85
4705;BME280;2366;51.332;6.610;2023-02-20T11:33:16;102197.13;;;13.27;59.22
4705;BME280;2366;51.332;6.610;2023-02-20T11:35:48;102180.94;;;13.31;59.28
4705;BME280;2366;51.332;6.610;2023-02-20T11:40:45;102201.66;;;13.25;59.15
4705;BME280;2366;51.332;6.610;2023-02-20T11:43:24;102206.75;;;13.12;59.33
4705;BME280;2366;51.332;6.610;2023-02-20T11:46:06;102218.50;;;12.89;60.49
4705;BME280;2366;51.332;6.610;2023-02-20T11:48:32;102214.41;;;12.82;60.37
4705;BME280;2366;51.332;6.610;2023-02-20T11:50:58;102204.72;;;12.98;59.65
4705;BME280;2366;51.332;6.610;2023-02-20T11:53:29;102209.94;;;13.01;60.38
4705;BME280;2366;51.332;6.610;2023-02-20T11:56:17;102207.38;;;13.17;60.19
4705;BME280;2366;51.332;6.610;2023-02-20T11:58:45;102204.28;;;13.07;59.79
4705;BME280;2366;51.332;6.610;2023-02-20T12:01:37;102206.16;;;13.05;59.96
4705;BME280;2366;51.332;6.610;2023-02-20T12:04:18;102192.56;;;13.11;60.17
4705;BME280;2366;51.332;6.610;2023-02-20T12:06:43;102195.50;;;13.05;60.46
4705;BME280;2366;51.332;6.610;2023-02-20T12:09:16;102198.34;;;13.02;59.48
4705;BME280;2366;51.332;6.610;2023-02-20T12:11:43;102201.28;;;12.96;60.25
4705;BME280;2366;51.332;6.610;2023-02-20T12:14:13;102209.25;;;12.96;60.38
4705;BME280;2366;51.332;6.610;2023-02-20T12:17:05;102199.34;;;13.00;60.44
4705;BME280;2366;51.332;6.610;2023-02-20T12:22:24;102195.25;;;12.92;60.38
4705;BME280;2366;51.332;6.610;2023-02-20T12:25:05;102209.25;;;12.96;60.82
4705;BME280;2366;51.332;6.610;2023-02-20T12:28:02;102202.28;;;12.93;60.18
4705;BME280;2366;51.332;6.610;2023-02-20T12:35:31;102173.38;;;12.86;60.69
4705;BME280;2366;51.332;6.610;2023-02-20T12:41:39;102174.88;;;12.91;61.75
4705;BME280;2366;51.332;6.610;2023-02-20T12:47:31;102173.19;;;12.90;61.31
4705;BME280;2366;51.332;6.610;2023-02-20T12:55:38;102159.53;;;12.97;61.51
4705;BME280;2366;51.332;6.610;2023-02-20T12:58:20;102131.31;;;13.11;61.21
4705;BME280;2366;51.332;6.610;2023-02-20T13:00:59;102129.75;;;13.25;61.04
4705;BME280;2366;51.332;6.610;2023-02-20T13:03:58;102142.66;;;13.34;60.21
4705;BME280;2366;51.332;6.610;2023-02-20T13:06:34;102136.38;;;13.35;60.53
4705;BME280;2366;51.332;6.610;2023-02-20T13:11:45;102107.81;;;13.20;61.81
4705;BME280;2366;51.332;6.610;2023-02-20T13:19:22;102086.97;;;13.29;60.58
4705;BME280;2366;51.332;6.610;2023-02-20T13:21:50;102062.31;;;13.24;61.54
4705;BME280;2366;51.332;6.610;2023-02-20T13:26:49;102051.59;;;13.26;61.03
4705;BME280;2366;51.332;6.610;2023-02-20T13:29:20;102049.66;;;13.29;61.01
4705;BME280;2366;51.332;6.610;2023-02-20T13:31:50;102068.06;;;13.34;60.74
4705;BME280;2366;51.332;6.610;2023-02-20T13:57:31;102049.50;;;13.32;61.51
4705;BME280;2366;51.332;6.610;2023-02-20T13:59:59;102070.94;;;13.12;61.72
4705;BME280;2366;51.332;6.610;2023-02-20T14:02:26;102061.47;;;13.24;62.02
4705;BME280;2366;51.332;6.610;2023-02-20T14:05:06;102067.09;;;13.18;62.03
4705;BME280;2366;51.332;6.610;2023-02-20T14:07:38;102060.13;;;13.15;61.69
4705;BME280;2366;51.332;6.610;2023-02-20T14:12:39;102041.72;;;13.10;61.88
4705;BME280;2366;51.332;6.610;2023-02-20T14:15:05;102055.66;;;13.15;62.12
4705;BME280;2366;51.332;6.610;2023-02-20T14:17:31;102067.25;;;13.14;62.46
4705;BME280;2366;51.332;6.610;2023-02-20T14:19:59;102055.91;;;13.11;62.17
4705;BME280;2366;51.332;6.610;2023-02-20T14:22:26;102057.69;;;13.10;62.15
4705;BME280;2366;51.332;6.610;2023-02-20T14:25:17;102044.75;;;13.03;62.31
4705;BME280;2366;51.332;6.610;2023-02-20T14:27:42;102041.97;;;13.06;62.88
4705;BME280;2366;51.332;6.610;2023-02-20T14:30:20;102042.41;;;12.97;62.60
4705;BME280;2366;51.332;6.610;2023-02-20T14:32:49;102058.78;;;13.06;62.56
4705;BME280;2366;51.332;6.610;2023-02-20T14:38:09;102048.28;;;13.03;62.97
4705;BME280;2366;51.332;6.610;2023-02-20T14:40:42;102034.97;;;13.03;63.02
4705;BME280;2366;51.332;6.610;2023-02-20T14:43:17;102048.16;;;13.06;62.98
4705;BME280;2366;51.332;6.610;2023-02-20T14:45:45;102040.78;;;13.11;62.98
4705;BME280;2366;51.332;6.610;2023-02-20T14:48:26;102046.50;;;13.04;62.64
4705;BME280;2366;51.332;6.610;2023-02-20T14:51:14;102041.25;;;13.02;63.17
4705;BME280;2366;51.332;6.610;2023-02-20T14:53:41;102042.97;;;13.03;63.24
4705;BME280;2366;51.332;6.610;2023-02-20T14:56:17;102044.69;;;13.04;63.32
4705;BME280;2366;51.332;6.610;2023-02-20T14:58:44;102042.09;;;13.03;62.85
4705;BME280;2366;51.332;6.610;2023-02-20T15:01:29;102059.41;;;12.94;63.04
4705;BME280;2366;51.332;6.610;2023-02-20T15:04:04;102058.06;;;13.03;63.64
4705;BME280;2366;51.332;6.610;2023-02-20T15:06:34;102046.28;;;13.08;63.40
4705;BME280;2366;51.332;6.610;2023-02-20T15:09:00;102034.75;;;13.08;63.19
4705;BME280;2366;51.332;6.610;2023-02-20T15:11:27;102043.91;;;13.02;63.53
4705;BME280;2366;51.332;6.610;2023-02-20T15:13:53;102035.75;;;13.05;62.87
4705;BME280;2366;51.332;6.610;2023-02-20T15:16:22;102039.13;;;13.09;63.53